Time;durP1;ratioP1;P1;durP2;ratioP2;P2;SDS_P1;SDS_P2;PMS_P1;PMS_P2;Temp;Humidity;BMP_temperature;BMP_pressure;BME280_temperature;BME280_humidity;BME280_pressure;Samples;Min_cycle;Max_cycle;Signal;HPM_P1;HPM_P2
2021/10/24 00:01:00;;;;;;;0.95;0.77;;;13.20;60.80;;;;;;4999923;28;20497;-81
2021/10/24 00:03:26;;;;;;;1.50;1.00;;;13.20;61.10;;;;;;5018513;28;20034;-81
2021/10/24 00:05:52;;;;;;;1.23;1.05;;;13.10;61.10;;;;;;5018119;28;20442;-82
2021/10/24 00:08:20;;;;;;;2.53;1.00;;;13.10;61.30;;;;;;5017433;28;20033;-81
2021/10/24 00:10:47;;;;;;;2.38;0.95;;;13.10;61.40;;;;;;5018430;28;20036;-80
2021/10/24 00:13:14;;;;;;;1.25;0.93;;;13.10;61.40;;;;;;5018607;28;20148;-83
2021/10/24 00:15:40;;;;;;;1.10;0.98;;;13.10;61.10;;;;;;5017862;28;20038;-81
2021/10/24 00:18:06;;;;;;;2.33;1.13;;;13.20;61.20;;;;;;5016656;28;20568;-81
2021/10/24 00:20:33;;;;;;;1.10;0.90;;;13.20;61.20;;;;;;5018063;28;20120;-83
2021/10/24 00:23:00;;;;;;;1.52;1.15;;;13.20;61.10;;;;;;5016667;28;20042;-84
2021/10/24 00:25:26;;;;;;;2.08;1.10;;;13.20;61.10;;;;;;5017197;28;20037;-83
2021/10/24 00:27:52;;;;;;;1.85;1.33;;;13.20;61.20;;;;;;5017808;28;20044;-82
2021/10/24 00:30:18;;;;;;;4.60;1.15;;;13.20;61.10;;;;;;5017582;28;20464;-82
2021/10/24 00:32:44;;;;;;;3.03;1.23;;;13.20;61.20;;;;;;5016900;28;20040;-82
2021/10/24 00:35:10;;;;;;;1.58;1.02;;;13.20;61.30;;;;;;4998329;28;20034;-82
2021/10/24 00:37:36;;;;;;;3.35;1.50;;;13.20;61.30;;;;;;5017619;28;20080;-82
2021/10/24 00:40:03;;;;;;;3.55;1.10;;;13.20;61.20;;;;;;5017711;28;20396;-83
2021/10/24 00:42:29;;;;;;;3.05;1.40;;;13.20;61.20;;;;;;5000119;28;20037;-84
2021/10/24 00:44:55;;;;;;;2.70;1.60;;;13.20;61.20;;;;;;4986654;28;20022;-85
2021/10/24 00:47:21;;;;;;;1.58;1.30;;;13.20;61.30;;;;;;5001804;28;20129;-81
2021/10/24 00:49:53;;;;;;;1.58;1.20;;;13.20;61.20;;;;;;4984401;28;20033;-84
2021/10/24 00:52:19;;;;;;;1.50;1.40;;;13.10;61.30;;;;;;4985382;28;20033;-82
2021/10/24 00:54:48;;;;;;;1.60;1.20;;;13.20;61.40;;;;;;5017551;28;20096;-83
2021/10/24 00:57:14;;;;;;;4.40;1.55;;;13.10;61.30;;;;;;4998908;28;20404;-83
2021/10/24 00:59:40;;;;;;;1.60;1.20;;;13.10;61.50;;;;;;5017076;28;20042;-84
2021/10/24 01:02:06;;;;;;;1.63;1.35;;;13.20;61.60;;;;;;5004457;28;20472;-83
2021/10/24 01:04:32;;;;;;;3.25;1.35;;;13.20;61.60;;;;;;4999278;28;20035;-83
2021/10/24 01:07:02;;;;;;;1.77;1.38;;;13.20;61.60;;;;;;4972779;28;20037;-83
2021/10/24 01:09:31;;;;;;;2.13;1.25;;;13.20;61.90;;;;;;5015248;28;20037;-82
2021/10/24 01:11:57;;;;;;;1.83;1.20;;;13.20;62.00;;;;;;4999208;28;20061;-83
2021/10/24 01:14:24;;;;;;;1.88;1.30;;;13.10;62.00;;;;;;5016386;28;20034;-83
2021/10/24 01:16:51;;;;;;;1.42;1.23;;;13.20;62.20;;;;;;4982994;28;20116;-84
2021/10/24 01:19:18;;;;;;;1.48;1.38;;;13.10;62.20;;;;;;4982091;28;20041;-83
2021/10/24 01:21:44;;;;;;;2.30;1.25;;;13.20;62.40;;;;;;4999165;28;20034;-83
2021/10/24 01:24:11;;;;;;;1.77;1.38;;;13.10;62.60;;;;;;4998635;28;20045;-84
2021/10/24 01:26:38;;;;;;;1.38;1.23;;;13.10;62.70;;;;;;4998663;28;20097;-83
2021/10/24 01:29:06;;;;;;;1.30;1.20;;;13.10;62.90;;;;;;4999549;28;20389;-84
2021/10/24 01:31:32;;;;;;;2.03;1.38;;;13.00;62.90;;;;;;4998286;28;20026;-85
2021/10/24 01:34:00;;;;;;;2.17;1.33;;;13.00;62.90;;;;;;4982763;28;20547;-84
2021/10/24 01:36:26;;;;;;;1.50;1.10;;;13.00;63.00;;;;;;4981816;28;20033;-85
2021/10/24 01:38:52;;;;;;;3.80;1.55;;;13.00;63.10;;;;;;4999422;28;20029;-84
2021/10/24 01:41:23;;;;;;;1.10;1.00;;;13.00;63.10;;;;;;4989674;28;20080;-84
2021/10/24 01:43:49;;;;;;;1.20;1.10;;;13.00;63.20;;;;;;4972636;28;20083;-83
2021/10/24 01:46:16;;;;;;;3.25;1.58;;;13.00;63.30;;;;;;5000918;28;20040;-83
2021/10/24 01:48:42;;;;;;;1.42;1.10;;;13.00;63.30;;;;;;4999700;28;20516;-83
2021/10/24 01:51:08;;;;;;;1.08;0.93;;;13.00;63.00;;;;;;4999467;28;20037;-84
2021/10/24 01:53:37;;;;;;;2.50;1.00;;;13.10;63.10;;;;;;4982223;28;20030;-84
2021/10/24 01:56:05;;;;;;;1.48;1.38;;;13.10;63.10;;;;;;4987146;28;20061;-84
2021/10/24 01:58:33;;;;;;;2.05;1.40;;;13.10;62.80;;;;;;4998425;28;20034;-84
2021/10/24 02:01:00;;;;;;;2.13;1.33;;;13.10;62.90;;;;;;5003560;28;20515;-84
2021/10/24 02:03:48;;;;;;;2.38;1.38;;;13.10;62.90;;;;;;5001005;28;20132;-84
2021/10/24 02:06:40;;;;;;;1.77;1.30;;;13.10;63.00;;;;;;4955559;28;20043;-83
2021/10/24 02:09:07;;;;;;;2.42;1.25;;;13.10;62.90;;;;;;4942969;28;20043;-83
2021/10/24 02:11:34;;;;;;;1.50;1.10;;;13.10;62.90;;;;;;4969652;28;20195;-83
2021/10/24 02:13:59;;;;;;;1.60;1.50;;;13.10;62.80;;;;;;4982614;28;20045;-83
2021/10/24 02:16:28;;;;;;;1.88;1.20;;;13.10;62.70;;;;;;4997665;28;20097;-83
2021/10/24 02:18:54;;;;;;;2.53;1.45;;;13.10;62.70;;;;;;5014356;28;20045;-83
2021/10/24 02:21:20;;;;;;;2.17;1.10;;;13.10;62.60;;;;;;5000678;28;20036;-83
2021/10/24 02:23:46;;;;;;;1.40;1.30;;;13.10;62.60;;;;;;5001066;28;20034;-83
2021/10/24 02:26:13;;;;;;;2.95;1.42;;;13.10;62.50;;;;;;4984989;28;21414;-83
2021/10/24 02:28:40;;;;;;;3.53;1.27;;;13.10;62.50;;;;;;5002281;28;20049;-83
2021/10/24 02:31:06;;;;;;;1.33;1.08;;;13.10;62.60;;;;;;4985854;28;21219;-82
2021/10/24 02:33:50;;;;;;;1.35;1.20;;;13.10;63.10;;;;;;5020097;28;20048;-83
2021/10/24 02:36:34;;;;;;;1.38;1.20;;;13.10;62.70;;;;;;4987869;28;20038;-84
2021/10/24 02:39:04;;;;;;;1.23;1.05;;;13.00;62.60;;;;;;5007206;28;20395;-84
2021/10/24 02:41:35;;;;;;;1.77;1.33;;;13.10;62.50;;;;;;5003331;28;20029;-82
2021/10/24 02:44:01;;;;;;;1.67;1.15;;;13.00;62.70;;;;;;5004472;28;20447;-83
2021/10/24 02:46:33;;;;;;;3.88;1.40;;;13.00;62.70;;;;;;4987359;28;20431;-83
2021/10/24 02:49:07;;;;;;;1.52;1.00;;;13.00;62.90;;;;;;5002426;28;20120;-83
2021/10/24 02:51:37;;;;;;;2.30;1.10;;;13.00;62.90;;;;;;5001373;28;20496;-82
2021/10/24 02:54:03;;;;;;;2.55;1.02;;;13.00;62.90;;;;;;4978243;28;20044;-83
2021/10/24 02:56:29;;;;;;;1.50;1.00;;;13.00;62.90;;;;;;5000680;28;20034;-82
2021/10/24 02:58:55;;;;;;;1.05;0.95;;;13.00;62.90;;;;;;5000875;28;20059;-83
2021/10/24 03:01:21;;;;;;;1.98;1.30;;;13.00;62.90;;;;;;5001086;28;20030;-82
2021/10/24 03:03:47;;;;;;;3.08;0.90;;;13.00;62.80;;;;;;5017980;28;20117;-83
2021/10/24 03:06:13;;;;;;;1.15;0.90;;;13.00;63.70;;;;;;4985434;28;20026;-82
2021/10/24 03:08:40;;;;;;;2.30;0.90;;;13.00;63.10;;;;;;5001711;28;20049;-83
2021/10/24 03:11:07;;;;;;;1.10;0.82;;;13.00;63.20;;;;;;4985043;28;20396;-83
2021/10/24 03:13:33;;;;;;;2.38;1.02;;;13.00;63.10;;;;;;5019046;28;20069;-81
2021/10/24 03:15:59;;;;;;;1.88;0.80;;;13.00;63.20;;;;;;5017721;28;20091;-83
2021/10/24 03:18:26;;;;;;;1.02;0.68;;;13.00;63.10;;;;;;5000619;28;20048;-83
2021/10/24 03:20:52;;;;;;;0.82;0.73;;;13.00;63.10;;;;;;5000528;28;20075;-83
2021/10/24 03:23:18;;;;;;;0.63;0.60;;;13.00;63.10;;;;;;5000440;28;20029;-83
2021/10/24 03:25:44;;;;;;;1.00;0.80;;;13.00;63.60;;;;;;4999992;28;20144;-82
2021/10/24 03:28:11;;;;;;;0.80;0.60;;;13.00;63.60;;;;;;4983692;28;20455;-83
2021/10/24 03:30:36;;;;;;;1.13;0.70;;;13.00;63.40;;;;;;5016994;28;20034;-83
2021/10/24 03:33:02;;;;;;;0.60;0.60;;;13.00;63.60;;;;;;5000888;28;20033;-83
2021/10/24 03:35:28;;;;;;;1.95;0.47;;;13.00;63.80;;;;;;5002570;28;20557;-83
2021/10/24 03:37:54;;;;;;;0.75;0.50;;;13.00;63.60;;;;;;5001804;28;20044;-82
2021/10/24 03:40:20;;;;;;;0.35;0.30;;;13.00;63.50;;;;;;4985074;28;20048;-82
2021/10/24 03:42:47;;;;;;;0.50;0.50;;;12.90;63.60;;;;;;4999786;28;20089;-82
2021/10/24 03:45:14;;;;;;;0.50;0.45;;;12.90;63.70;;;;;;5000971;28;20149;-82
2021/10/24 03:47:40;;;;;;;0.90;0.40;;;12.90;63.60;;;;;;5000580;28;20068;-84
2021/10/24 03:50:07;;;;;;;0.40;0.40;;;12.90;63.70;;;;;;5000420;28;20489;-84
2021/10/24 03:52:33;;;;;;;1.45;0.57;;;12.90;63.70;;;;;;5001470;28;20682;-83
2021/10/24 03:54:59;;;;;;;1.35;0.50;;;12.90;63.60;;;;;;5003477;28;20124;-84
2021/10/24 03:57:26;;;;;;;0.80;0.60;;;12.90;63.30;;;;;;4982274;28;20159;-84
2021/10/24 03:59:52;;;;;;;0.40;0.40;;;12.90;63.30;;;;;;4999691;28;20124;-84
2021/10/24 04:02:18;;;;;;;0.32;0.30;;;12.90;63.30;;;;;;4998556;28;20045;-83
2021/10/24 04:04:44;;;;;;;0.57;0.40;;;12.90;63.40;;;;;;4985065;28;20034;-84
2021/10/24 04:07:11;;;;;;;0.50;0.40;;;12.90;63.60;;;;;;5000220;28;20116;-85
2021/10/24 04:09:37;;;;;;;0.32;0.22;;;12.90;63.70;;;;;;4998594;28;20061;-84
2021/10/24 04:12:04;;;;;;;0.35;0.30;;;12.90;63.80;;;;;;4985031;28;20029;-85
2021/10/24 04:14:30;;;;;;;0.40;0.35;;;12.90;63.80;;;;;;4999547;28;20087;-84
2021/10/24 04:16:56;;;;;;;0.63;0.43;;;12.90;64.00;;;;;;5000345;28;20025;-83
2021/10/24 04:19:25;;;;;;;1.52;0.45;;;12.80;63.90;;;;;;5002049;28;20068;-84
2021/10/24 04:21:51;;;;;;;1.00;0.40;;;12.80;63.90;;;;;;5000651;28;20025;-83
2021/10/24 04:24:18;;;;;;;0.32;0.32;;;12.80;63.90;;;;;;4998246;28;20064;-83
2021/10/24 04:26:45;;;;;;;0.22;0.22;;;12.80;64.00;;;;;;5000476;28;20034;-83
2021/10/24 04:29:11;;;;;;;1.55;0.40;;;12.80;64.00;;;;;;4999500;28;20036;-83
2021/10/24 04:31:40;;;;;;;0.75;0.30;;;12.80;64.10;;;;;;4998178;28;20037;-82
2021/10/24 04:34:06;;;;;;;0.22;0.20;;;12.80;64.10;;;;;;5017327;28;20033;-82
2021/10/24 04:36:32;;;;;;;0.55;0.30;;;12.80;64.10;;;;;;4984291;28;20079;-82
2021/10/24 04:38:58;;;;;;;0.30;0.20;;;12.80;64.20;;;;;;5005907;28;20037;-82
2021/10/24 04:41:24;;;;;;;1.25;0.45;;;12.80;64.20;;;;;;4999892;28;20026;-84
2021/10/24 04:43:51;;;;;;;0.60;0.55;;;12.80;64.30;;;;;;5000007;28;20079;-84
2021/10/24 04:46:20;;;;;;;2.92;0.88;;;12.80;64.40;;;;;;4999345;28;20079;-84
2021/10/24 04:48:46;;;;;;;0.38;0.32;;;12.80;64.50;;;;;;4981384;28;20041;-84
2021/10/24 04:51:14;;;;;;;1.30;0.20;;;12.80;64.50;;;;;;5000148;28;20033;-83
2021/10/24 04:53:40;;;;;;;0.50;0.30;;;12.80;64.60;;;;;;4987707;28;20439;-85
2021/10/24 04:56:07;;;;;;;1.85;0.38;;;12.80;64.50;;;;;;4994204;28;20045;-83
2021/10/24 04:58:33;;;;;;;1.00;0.40;;;12.80;64.40;;;;;;5010578;28;20133;-83
2021/10/24 05:00:59;;;;;;;1.30;0.30;;;12.80;64.50;;;;;;5014686;28;20172;-84
2021/10/24 05:03:25;;;;;;;0.45;0.30;;;12.80;64.50;;;;;;4988608;28;20555;-83
2021/10/24 05:05:51;;;;;;;0.77;0.32;;;12.80;64.60;;;;;;5014132;28;20025;-81
2021/10/24 05:08:18;;;;;;;0.68;0.30;;;12.80;64.60;;;;;;4998028;28;20385;-83
2021/10/24 05:10:44;;;;;;;1.30;0.40;;;12.80;64.70;;;;;;4983568;28;20469;-83
2021/10/24 05:13:10;;;;;;;0.95;0.50;;;12.80;64.60;;;;;;4997316;28;20037;-81
2021/10/24 05:15:37;;;;;;;1.20;0.60;;;12.80;64.50;;;;;;4997483;28;20040;-81
2021/10/24 05:18:06;;;;;;;1.70;0.47;;;12.80;64.50;;;;;;4999390;28;20377;-81
2021/10/24 05:20:34;;;;;;;0.57;0.30;;;12.80;64.60;;;;;;4985029;28;21090;-81
2021/10/24 05:23:00;;;;;;;1.15;0.50;;;12.80;64.40;;;;;;5014591;28;20030;-81
2021/10/24 05:25:29;;;;;;;2.28;0.40;;;12.80;64.40;;;;;;4996622;28;20050;-81
2021/10/24 05:27:56;;;;;;;1.17;0.90;;;12.80;64.70;;;;;;4997733;28;20044;-81
2021/10/24 05:30:22;;;;;;;0.55;0.30;;;12.80;64.60;;;;;;5017503;28;20037;-82
2021/10/24 05:32:49;;;;;;;0.30;0.30;;;12.80;64.50;;;;;;4998632;28;20128;-80
2021/10/24 05:35:18;;;;;;;0.30;0.25;;;12.80;64.70;;;;;;4998682;28;20061;-80
2021/10/24 05:37:44;;;;;;;2.25;0.40;;;12.80;64.70;;;;;;4999213;28;20037;-82
2021/10/24 05:40:14;;;;;;;1.38;0.30;;;12.80;64.60;;;;;;4998493;28;20036;-83
2021/10/24 05:43:06;;;;;;;0.93;0.40;;;12.80;64.50;;;;;;4996099;28;20045;-82
2021/10/24 05:45:32;;;;;;;0.63;0.45;;;12.80;64.50;;;;;;5001407;28;20029;-81
2021/10/24 05:47:59;;;;;;;1.02;0.68;;;12.70;64.50;;;;;;4982791;28;20042;-82
2021/10/24 05:50:40;;;;;;;0.75;0.28;;;12.80;64.50;;;;;;4984672;28;20033;-83
2021/10/24 05:53:07;;;;;;;1.15;0.30;;;12.70;64.60;;;;;;5014049;28;20034;-82
2021/10/24 05:55:33;;;;;;;0.30;0.30;;;12.80;64.50;;;;;;4997710;28;20112;-84
2021/10/24 05:57:59;;;;;;;0.45;0.30;;;12.70;64.50;;;;;;4987394;28;20033;-83
2021/10/24 06:00:48;;;;;;;0.57;0.22;;;12.70;64.50;;;;;;4993245;28;20033;-83
2021/10/24 06:03:44;;;;;;;2.28;0.43;;;12.70;64.40;;;;;;4942262;29;20035;-83
2021/10/24 06:06:28;;;;;;;0.30;0.30;;;12.70;64.30;;;;;;4943867;29;20562;-81
2021/10/24 06:08:54;;;;;;;0.80;0.30;;;12.70;64.50;;;;;;4996927;28;20049;-82
2021/10/24 06:13:53;;;;;;;0.68;0.30;;;12.70;64.30;;;;;;4989009;28;20035;-84
2021/10/24 06:16:19;;;;;;;0.63;0.40;;;12.70;64.30;;;;;;5006839;28;20384;-83
2021/10/24 06:18:45;;;;;;;0.57;0.50;;;12.70;64.30;;;;;;5002623;28;20043;-82
2021/10/24 06:21:11;;;;;;;0.75;0.60;;;12.70;64.20;;;;;;5002786;28;20037;-82
2021/10/24 06:23:37;;;;;;;1.10;0.50;;;12.70;64.10;;;;;;5001833;28;20120;-82
2021/10/24 06:26:07;;;;;;;1.95;0.40;;;12.70;64.50;;;;;;5004214;28;20049;-82
2021/10/24 06:28:33;;;;;;;0.70;0.38;;;12.70;64.00;;;;;;4989641;28;20518;-82
2021/10/24 06:30:59;;;;;;;1.75;0.55;;;12.70;64.00;;;;;;5007989;28;20065;-81
2021/10/24 06:33:55;;;;;;;0.98;0.30;;;12.70;64.00;;;;;;4916076;29;20052;-82
2021/10/24 06:36:41;;;;;;;1.17;0.50;;;12.70;64.60;;;;;;4904576;29;20076;-92
2021/10/24 06:39:24;;;;;;;0.98;0.40;;;12.70;63.90;;;;;;5000716;28;20480;-91
2021/10/24 06:41:50;;;;;;;0.80;0.50;;;12.70;63.90;;;;;;5003090;28;20029;-89
2021/10/24 06:44:29;;;;;;;0.40;0.30;;;12.70;63.70;;;;;;4987957;28;20034;-91
2021/10/24 06:47:14;;;;;;;0.43;0.30;;;12.70;63.70;;;;;;5021027;28;20489;-86
2021/10/24 06:49:49;;;;;;;0.60;0.60;;;12.70;63.50;;;;;;5018974;28;20032;-87
2021/10/24 06:52:34;;;;;;;1.33;0.40;;;12.70;63.40;;;;;;5021433;28;20049;-85
2021/10/24 06:55:29;;;;;;;0.88;0.50;;;12.70;63.50;;;;;;4939742;29;20503;-90
2021/10/24 06:58:16;;;;;;;0.70;0.45;;;12.70;63.40;;;;;;4889171;29;21255;-87
2021/10/24 07:01:00;;;;;;;0.38;0.30;;;12.70;63.40;;;;;;4947174;29;20124;-88
2021/10/24 07:03:45;;;;;;;0.57;0.43;;;12.70;63.50;;;;;;5007649;28;20040;-85
2021/10/24 07:06:23;;;;;;;1.20;0.30;;;12.70;64.10;;;;;;5026659;28;20120;-83
2021/10/24 07:09:22;;;;;;;2.15;0.30;;;12.70;64.20;;;;;;4962429;28;20117;-83
2021/10/24 07:11:48;;;;;;;1.73;0.40;;;12.80;64.60;;;;;;4976890;28;20088;-84
2021/10/24 07:14:14;;;;;;;0.38;0.30;;;12.80;64.50;;;;;;4997915;28;20044;-84
2021/10/24 07:16:41;;;;;;;2.05;0.50;;;12.80;64.60;;;;;;5013000;28;20029;-86
2021/10/24 07:19:09;;;;;;;0.45;0.45;;;12.80;64.60;;;;;;5017068;28;20476;-85
2021/10/24 07:21:35;;;;;;;1.50;0.40;;;12.80;64.70;;;;;;5001542;28;20037;-86
2021/10/24 07:24:04;;;;;;;1.60;0.60;;;12.80;64.80;;;;;;4999519;28;20071;-85
2021/10/24 07:26:35;;;;;;;0.77;0.40;;;12.80;64.90;;;;;;5002213;28;20033;-84
2021/10/24 07:29:02;;;;;;;2.45;0.60;;;12.80;65.00;;;;;;5045575;28;20042;-87
2021/10/24 07:31:29;;;;;;;1.25;0.68;;;12.80;65.20;;;;;;4995451;28;20026;-86
2021/10/24 07:34:27;;;;;;;7.97;0.75;;;12.80;65.20;;;;;;4974631;28;20484;-82
2021/10/24 07:36:53;;;;;;;7.47;0.95;;;12.90;66.70;;;;;;4998846;28;20480;-82
2021/10/24 07:39:20;;;;;;;1.83;0.50;;;12.90;70.60;;;;;;5017610;28;20025;-83
2021/10/24 07:41:47;;;;;;;4.30;0.70;;;13.00;70.70;;;;;;5003905;28;20058;-80
2021/10/24 07:44:18;;;;;;;4.82;0.47;;;13.10;73.00;;;;;;5009403;28;20080;-80
2021/10/24 07:46:45;;;;;;;2.85;0.35;;;13.20;71.70;;;;;;5029613;28;20502;-79
2021/10/24 07:49:13;;;;;;;1.27;0.52;;;13.20;70.30;;;;;;5016099;28;20033;-80
2021/10/24 07:51:39;;;;;;;0.95;0.40;;;13.30;69.10;;;;;;4979789;28;20125;-80
2021/10/24 07:54:06;;;;;;;1.75;0.40;;;13.30;68.10;;;;;;4968164;28;20033;-80
2021/10/24 07:56:38;;;;;;;1.45;0.30;;;13.30;67.50;;;;;;5010858;28;20029;-81
2021/10/24 07:59:15;;;;;;;0.43;0.40;;;13.30;67.00;;;;;;5013641;28;20064;-80
2021/10/24 08:01:41;;;;;;;1.13;0.40;;;13.30;66.80;;;;;;5001613;28;20415;-82
2021/10/24 08:04:10;;;;;;;4.00;0.57;;;13.30;66.50;;;;;;4986994;28;20038;-81
2021/10/24 08:06:39;;;;;;;1.05;0.40;;;13.40;66.10;;;;;;4999774;28;20034;-81
2021/10/24 08:09:09;;;;;;;0.73;0.40;;;13.30;66.10;;;;;;4999697;28;20038;-82
2021/10/24 08:11:39;;;;;;;2.58;0.30;;;13.30;65.90;;;;;;5004098;28;20052;-81
2021/10/24 08:14:07;;;;;;;4.15;0.30;;;13.30;65.70;;;;;;4982904;28;20040;-80
2021/10/24 08:16:38;;;;;;;2.33;0.30;;;13.30;65.90;;;;;;5000175;28;20029;-83
2021/10/24 08:19:07;;;;;;;1.65;0.68;;;13.40;66.10;;;;;;4971667;28;20037;-83
2021/10/24 08:21:37;;;;;;;0.40;0.40;;;13.40;65.90;;;;;;4999627;28;20030;-83
2021/10/24 08:24:04;;;;;;;2.15;0.30;;;13.40;65.90;;;;;;4999181;28;20034;-82
2021/10/24 08:26:33;;;;;;;1.38;0.40;;;13.40;65.50;;;;;;4999387;28;20075;-80
2021/10/24 08:28:59;;;;;;;1.58;0.43;;;13.50;65.30;;;;;;4999653;28;20041;-80
2021/10/24 08:31:49;;;;;;;1.95;0.40;;;13.50;65.10;;;;;;5002285;28;20044;-82
2021/10/24 08:34:16;;;;;;;0.95;0.50;;;13.50;65.00;;;;;;5018146;28;20075;-81
2021/10/24 08:36:43;;;;;;;1.55;0.38;;;13.50;65.00;;;;;;4987371;28;20563;-80
2021/10/24 08:39:10;;;;;;;0.52;0.20;;;13.50;65.10;;;;;;5017149;28;20124;-82
2021/10/24 08:41:39;;;;;;;0.55;0.25;;;13.50;65.00;;;;;;5016205;28;20080;-83
2021/10/24 08:44:06;;;;;;;3.22;0.40;;;13.50;64.80;;;;;;4988085;28;20040;-81
2021/10/24 08:46:32;;;;;;;0.85;0.32;;;13.50;64.80;;;;;;4999503;28;20030;-81
2021/10/24 08:48:59;;;;;;;0.95;0.32;;;13.50;64.70;;;;;;5017804;28;20029;-81
2021/10/24 08:51:29;;;;;;;1.15;0.40;;;13.50;64.50;;;;;;5017174;28;20444;-81
2021/10/24 08:53:59;;;;;;;0.93;0.30;;;13.50;64.40;;;;;;4998960;28;20480;-79
2021/10/24 08:56:29;;;;;;;4.32;0.38;;;13.50;64.30;;;;;;5000813;28;20038;-82
2021/10/24 08:58:56;;;;;;;1.98;0.95;;;13.50;65.80;;;;;;4982503;28;20108;-84
2021/10/24 09:01:22;;;;;;;3.55;0.50;;;13.60;70.80;;;;;;4999525;28;20065;-81
2021/10/24 09:04:09;;;;;;;4.28;0.65;;;13.60;71.40;;;;;;5016441;28;20440;-82
2021/10/24 09:06:53;;;;;;;1.98;0.47;;;13.70;70.50;;;;;;5016125;28;20152;-83
2021/10/24 09:09:28;;;;;;;6.82;0.70;;;13.80;68.80;;;;;;5015907;28;20082;-84
2021/10/24 09:11:55;;;;;;;3.10;0.47;;;13.80;67.90;;;;;;4988150;28;20390;-83
2021/10/24 09:14:47;;;;;;;1.75;0.40;;;13.90;67.20;;;;;;5016497;28;20044;-85
2021/10/24 09:17:23;;;;;;;1.90;0.50;;;13.90;67.00;;;;;;5016713;28;20401;-85
2021/10/24 09:20:05;;;;;;;3.15;0.90;;;13.90;66.80;;;;;;5015137;28;20488;-85
2021/10/24 09:22:35;;;;;;;1.88;0.30;;;13.90;67.00;;;;;;5016309;28;20049;-83
2021/10/24 09:25:01;;;;;;;1.40;0.52;;;13.90;66.60;;;;;;5017754;28;20057;-84
2021/10/24 09:27:46;;;;;;;1.70;0.65;;;13.90;65.80;;;;;;5016847;28;20029;-81
2021/10/24 09:30:27;;;;;;;1.63;0.65;;;14.00;65.60;;;;;;5016332;28;20113;-81
2021/10/24 09:32:58;;;;;;;3.15;0.82;;;13.90;65.70;;;;;;5016958;28;20528;-80
2021/10/24 09:35:24;;;;;;;1.30;0.40;;;14.00;65.80;;;;;;5015581;28;20038;-81
2021/10/24 09:38:15;;;;;;;0.90;0.50;;;14.00;66.20;;;;;;5016868;28;20103;-81
2021/10/24 09:40:54;;;;;;;3.15;0.43;;;14.00;66.30;;;;;;4997940;28;20026;-83
2021/10/24 09:43:28;;;;;;;1.15;0.55;;;14.00;66.70;;;;;;5016764;28;20033;-83
2021/10/24 09:45:57;;;;;;;9.30;5.25;;;14.00;67.20;;;;;;5015931;28;21217;-83
2021/10/24 09:48:25;;;;;;;13.25;4.90;;;14.10;71.10;;;;;;5016243;28;20034;-84
2021/10/24 09:50:53;;;;;;;4.50;3.17;;;14.20;74.00;;;;;;4982647;28;20029;-83
2021/10/24 09:53:28;;;;;;;11.43;2.40;;;14.30;73.90;;;;;;5016941;28;20530;-82
2021/10/24 09:55:55;;;;;;;7.38;2.28;;;14.50;73.40;;;;;;5015403;28;20084;-83
2021/10/24 09:58:32;;;;;;;5.80;1.90;;;14.60;73.20;;;;;;5016439;28;20029;-78
2021/10/24 10:01:00;;;;;;;2.95;2.03;;;14.70;72.80;;;;;;5017055;28;20026;-81
2021/10/24 10:03:27;;;;;;;3.75;1.50;;;14.70;70.90;;;;;;4999131;28;20033;-79
2021/10/24 10:05:54;;;;;;;2.55;1.58;;;14.70;68.80;;;;;;5014925;28;20038;-80
2021/10/24 10:08:21;;;;;;;3.30;1.25;;;14.80;68.10;;;;;;4998802;28;20040;-81
2021/10/24 10:11:03;;;;;;;9.20;1.35;;;14.70;66.60;;;;;;5015538;28;20029;-80
2021/10/24 10:13:32;;;;;;;3.55;1.50;;;14.70;66.40;;;;;;5015891;28;20038;-80
2021/10/24 10:16:05;;;;;;;4.10;1.27;;;14.70;67.90;;;;;;5016005;28;20621;-79
2021/10/24 10:18:56;;;;;;;1.83;1.00;;;14.70;67.40;;;;;;5015431;28;20041;-79
2021/10/24 10:21:43;;;;;;;1.65;1.17;;;14.60;66.50;;;;;;5016033;28;20026;-79
2021/10/24 10:24:31;;;;;;;1.60;0.93;;;14.60;66.10;;;;;;5016054;28;20053;-79
2021/10/24 10:26:58;;;;;;;2.13;1.00;;;14.60;65.90;;;;;;4987166;28;20087;-79
2021/10/24 10:29:50;;;;;;;2.47;1.02;;;14.60;65.40;;;;;;5016236;28;20036;-80
2021/10/24 10:32:18;;;;;;;5.75;1.10;;;14.50;64.90;;;;;;5014637;28;20052;-84
2021/10/24 10:34:56;;;;;;;10.30;1.10;;;14.50;64.60;;;;;;5015670;28;20112;-80
2021/10/24 10:37:53;;;;;;;3.85;1.10;;;14.50;68.80;;;;;;4980804;28;20083;-79
2021/10/24 10:40:25;;;;;;;4.03;1.13;;;14.50;68.80;;;;;;4989407;28;20067;-88
2021/10/24 10:42:58;;;;;;;5.57;1.23;;;14.50;68.20;;;;;;4993489;28;20465;-81
2021/10/24 10:45:47;;;;;;;4.45;0.90;;;14.60;71.50;;;;;;5017716;28;20052;-82
2021/10/24 10:48:36;;;;;;;4.35;1.08;;;14.60;71.50;;;;;;5015698;28;20030;-81
2021/10/24 10:51:15;;;;;;;2.78;0.70;;;14.60;69.40;;;;;;5017475;28;20044;-81
2021/10/24 10:53:46;;;;;;;3.70;0.90;;;14.60;68.00;;;;;;5027000;28;20084;-81
2021/10/24 10:56:12;;;;;;;2.10;0.70;;;14.60;67.10;;;;;;5027343;28;20037;-80
2021/10/24 10:58:40;;;;;;;1.33;0.50;;;14.60;66.80;;;;;;5028190;28;20068;-81
2021/10/24 11:01:21;;;;;;;3.72;0.70;;;14.60;65.80;;;;;;5011977;28;20168;-81
2021/10/24 11:03:52;;;;;;;1.13;0.70;;;14.60;64.20;;;;;;5011690;28;20058;-82
2021/10/24 11:06:24;;;;;;;0.90;0.75;;;14.50;63.40;;;;;;5023728;28;20104;-80
2021/10/24 11:08:52;;;;;;;0.80;0.43;;;14.50;62.30;;;;;;5033881;28;20482;-82
2021/10/24 11:11:39;;;;;;;2.25;0.80;;;14.50;62.00;;;;;;5012158;28;20029;-81
2021/10/24 11:14:12;;;;;;;1.63;0.90;;;14.30;61.50;;;;;;4989335;28;20500;-83
2021/10/24 11:16:52;;;;;;;2.60;0.70;;;14.30;61.30;;;;;;5026192;28;20038;-82
2021/10/24 11:19:27;;;;;;;1.83;0.60;;;14.20;60.50;;;;;;5026022;28;20412;-81
2021/10/24 11:22:11;;;;;;;1.02;0.73;;;14.20;60.50;;;;;;5033575;28;20468;-87
2021/10/24 11:24:44;;;;;;;2.47;0.70;;;14.10;60.30;;;;;;5013444;28;20416;-84
2021/10/24 11:27:31;;;;;;;2.25;0.60;;;14.10;61.60;;;;;;5012695;28;20069;-84
2021/10/24 11:30:05;;;;;;;3.70;0.90;;;14.10;64.10;;;;;;5022271;28;20144;-84
2021/10/24 11:32:33;;;;;;;2.97;0.77;;;14.10;64.70;;;;;;5021326;28;20092;-85
2021/10/24 11:35:04;;;;;;;1.52;0.57;;;14.10;65.00;;;;;;5005247;28;20036;-84
2021/10/24 11:37:45;;;;;;;6.57;0.75;;;14.20;65.50;;;;;;5014517;28;20615;-86
2021/10/24 11:40:18;;;;;;;2.13;0.57;;;14.10;64.90;;;;;;5030406;28;20034;-86
2021/10/24 11:43:01;;;;;;;1.52;0.60;;;14.20;65.00;;;;;;5009967;28;20105;-86
2021/10/24 11:45:30;;;;;;;4.47;0.80;;;14.20;65.30;;;;;;5027814;28;20065;-84
2021/10/24 11:48:04;;;;;;;1.80;0.70;;;14.10;65.30;;;;;;4994906;28;20047;-85
2021/10/24 11:50:53;;;;;;;2.10;0.50;;;14.20;66.00;;;;;;5025760;28;20133;-83
2021/10/24 11:53:32;;;;;;;1.70;0.85;;;14.20;66.20;;;;;;5030851;28;20037;-83
2021/10/24 11:56:15;;;;;;;1.20;0.70;;;14.20;65.90;;;;;;5009376;28;20615;-83
2021/10/24 12:01:26;;;;;;;0.68;0.60;;;14.10;64.90;;;;;;5012089;28;20607;-84
2021/10/24 12:03:59;;;;;;;1.08;0.68;;;14.10;64.70;;;;;;5008639;28;20034;-84
2021/10/24 12:06:50;;;;;;;0.98;0.60;;;14.00;64.80;;;;;;5024115;28;20029;-83
2021/10/24 12:09:35;;;;;;;1.35;0.80;;;14.10;64.90;;;;;;4999139;28;20033;-82
2021/10/24 12:12:23;;;;;;;2.22;0.88;;;14.10;65.50;;;;;;4972567;28;20065;-84
2021/10/24 12:14:55;;;;;;;2.97;0.73;;;14.10;66.30;;;;;;5016194;28;20041;-84
2021/10/24 12:17:27;;;;;;;2.03;0.80;;;14.10;66.10;;;;;;5000878;28;20038;-87
2021/10/24 12:20:18;;;;;;;1.70;0.60;;;14.10;66.70;;;;;;4988395;28;20500;-86
2021/10/24 12:22:48;;;;;;;0.70;0.60;;;14.20;66.40;;;;;;5020604;28;20034;-86
2021/10/24 12:25:20;;;;;;;0.65;0.65;;;14.10;65.20;;;;;;4974093;28;20405;-86
2021/10/24 12:28:06;;;;;;;1.80;0.70;;;14.10;64.80;;;;;;5001673;28;20041;-86
2021/10/24 12:30:33;;;;;;;1.75;1.02;;;14.10;64.50;;;;;;4999601;28;20038;-86
2021/10/24 12:33:02;;;;;;;3.95;3.10;;;14.10;65.00;;;;;;5004202;28;20037;-87
2021/10/24 12:35:28;;;;;;;5.55;4.85;;;14.10;64.80;;;;;;4979325;28;20069;-83
2021/10/24 12:38:03;;;;;;;6.90;5.30;;;14.00;64.40;;;;;;4994991;28;20459;-86
2021/10/24 12:40:33;;;;;;;6.95;5.25;;;14.00;64.40;;;;;;4981686;28;20037;-85
2021/10/24 12:43:13;;;;;;;9.32;6.43;;;14.00;64.30;;;;;;4983018;28;20069;-88
2021/10/24 12:46:01;;;;;;;10.30;7.45;;;14.00;64.80;;;;;;4987119;28;20080;-92
2021/10/24 12:48:46;;;;;;;10.45;7.20;;;14.00;65.70;;;;;;5003030;28;20124;-85
2021/10/24 12:51:40;;;;;;;8.05;4.72;;;14.00;69.30;;;;;;5002427;28;20447;-85
2021/10/24 12:54:09;;;;;;;7.10;4.10;;;14.10;65.00;;;;;;5008378;28;20104;-86
2021/10/24 12:56:37;;;;;;;4.43;3.38;;;14.00;62.70;;;;;;5005421;28;20041;-84
2021/10/24 12:59:03;;;;;;;4.65;2.97;;;14.00;61.70;;;;;;5012114;28;20067;-84
2021/10/24 13:01:32;;;;;;;4.68;2.85;;;14.00;61.00;;;;;;5009411;28;20040;-85
2021/10/24 13:03:59;;;;;;;4.07;2.80;;;13.90;60.70;;;;;;5003545;28;20112;-85
2021/10/24 13:06:27;;;;;;;3.65;2.95;;;13.80;61.20;;;;;;4998847;28;20034;-82
2021/10/24 13:08:53;;;;;;;4.00;2.50;;;13.80;60.90;;;;;;4998343;28;20123;-84
2021/10/24 13:11:20;;;;;;;3.72;2.10;;;13.70;60.60;;;;;;5016878;28;20038;-83